ADDS METAR Data INFO
IDs: Format: Raw Decoded Include TAF

Data at: 1009 UTC 12 Dec 2017

KSBS 120954Z AUTO 00000KT 10SM CLR M09/M12 A3056 RMK AO1 T10941125
KSBS 120930Z AUTO 29003KT 10SM CLR M09/M12 A3057 RMK AO1 T10861118
KSBS 120912Z AUTO 00000KT 10SM CLR M09/M12 A3056 RMK AO1 T10931124
KSBS 120854Z AUTO 00000KT 10SM CLR M08/M12 A3056 RMK AO1 T10841120
KSBS 120830Z AUTO 00000KT 10SM CLR M07/M12 A3056 RMK AO1 T10711116
KSBS 120812Z AUTO 00000KT 10SM CLR M07/M11 A3056 RMK AO1 T10661113
KSBS 120754Z AUTO 00000KT 10SM CLR M08/M12 A3056 RMK AO1 T10761116
KSBS 120730Z AUTO 00000KT 10SM CLR M08/M12 A3055 RMK AO1 T10811124
KSBS 120712Z AUTO 00000KT 10SM CLR M06/M11 A3054 RMK AO1 T10651114
KSBS 120654Z AUTO 00000KT 10SM CLR M06/M11 A3054 RMK AO1 T10631115
KSBS 120630Z AUTO 00000KT 10SM CLR M08/M12 A3054 RMK AO1 T10761117
KSBS 120612Z AUTO 00000KT 10SM CLR M06/M12 A3054 RMK AO1 T10581117
KSBS 120553Z AUTO 00000KT 10SM CLR M06/M12 A3054 RMK AO1 T10561117
KSBS 120530Z AUTO 00000KT 10SM CLR M04/M11 A3054 RMK AO1 T10451115
KSBS 120512Z AUTO 00000KT 10SM CLR M05/M11 A3054 RMK AO1 T10531112
KSBS 120454Z AUTO 00000KT 10SM CLR M04/M11 A3054 RMK AO1 T10451114
KSBS 120430Z AUTO 00000KT 10SM CLR M04/M11 A3053 RMK AO1 T10391111
KSBS 120412Z AUTO 00000KT 10SM CLR M05/M11 A3053 RMK AO1 T10461111
KSBS 120354Z AUTO 00000KT 10SM CLR M05/M11 A3053 RMK AO1 T10501111
KSBS 120330Z AUTO 00000KT 10SM CLR M03/M11 A3053 RMK AO1 T10311111
KSBS 120312Z AUTO 00000KT 10SM CLR M04/M11 A3053 RMK AO1 T10411111
KSBS 120251Z AUTO 00000KT 10SM CLR M03/M11 A3053 RMK AO1 T10301107
KSBS 120233Z AUTO 00000KT 10SM CLR M03/M11 A3053 RMK AO1 T10291107
KSBS 120211Z AUTO 00000KT 10SM CLR M03/M11 A3052 RMK AO1 T10281107
KSBS 120152Z AUTO 00000KT 10SM CLR M03/M11 A3052 RMK AO1 T10271109
KSBS 120135Z AUTO 00000KT 10SM CLR M03/M11 A3052 RMK AO1 T10261111
KSBS 120112Z AUTO 00000KT 10SM CLR M01/M11 A3051 RMK AO1 T10101110
KSBS 120054Z AUTO 00000KT 10SM CLR 00/M11 A3051 RMK AO1 T00001112
KSBS 120030Z AUTO 00000KT 10SM CLR 00/M12 A3051 RMK AO1 T10041116
KSBS 120012Z AUTO 09003KT 10SM CLR 00/M11 A3051 RMK AO1 T00011115
KSBS 112354Z AUTO 09003KT 10SM CLR 01/M11 A3050 RMK AO1 T00061115
KSBS 112330Z AUTO 00000KT 10SM CLR 02/M11 A3050 RMK AO1 T00171110
KSBS 112312Z AUTO 00000KT 10SM CLR 02/M11 A3050 RMK AO1 T00181111
KSBS 112253Z AUTO 00000KT 10SM CLR 02/M12 A3050 RMK AO1 T00211116
KSBS 112230Z AUTO 00000KT 10SM CLR 03/M10 A3050 RMK AO1 T00271104
KSBS 112212Z AUTO 00000KT 10SM CLR 03/M10 A3049 RMK AO1 T00321103
KSBS 112155Z AUTO 00000KT 10SM CLR 03/M10 A3050 RMK AO1 T00301105
KSBS 112134Z AUTO 00000KT 10SM CLR 03/M10 A3049 RMK AO1 T00301100
KSBS 112111Z AUTO 00000KT 10SM CLR 03/M10 A3049 RMK AO1 T00311098
KSBS 112053Z AUTO 00000KT 10SM CLR 03/M10 A3050 RMK AO1 T00271101
KSBS 112030Z AUTO 00000KT 10SM CLR 02/M10 A3050 RMK AO1 T00191103
KSBS 112012Z AUTO 00000KT 10SM CLR 02/M10 A3050 RMK AO1 T00171102
KSBS 111953Z AUTO 00000KT 10SM CLR 01/M11 A3051 RMK AO1 T00091106
KSBS 111935Z AUTO 00000KT 10SM CLR 00/M10 A3051 RMK AO1 T00001103
KSBS 111912Z AUTO 00000KT 10SM CLR M01/M11 A3052 RMK AO1 T10081108
KSBS 111854Z AUTO 00000KT 10SM CLR M01/M11 A3053 RMK AO1 T10131106
KSBS 111830Z AUTO 00000KT 10SM CLR M02/M10 A3054 RMK AO1 T10251105
KSBS 111812Z AUTO 00000KT 10SM CLR M03/M11 A3054 RMK AO1 T10351112
KSBS 111754Z AUTO 00000KT 10SM CLR M04/M13 A3054 RMK AO1 T10421128
KSBS 111730Z AUTO 00000KT 10SM CLR M06/M12 A3056 RMK AO1 T10571116
KSBS 111712Z AUTO 00000KT 10SM CLR M07/M12 A3056 RMK AO1 T10711121
KSBS 111653Z AUTO 00000KT 10SM CLR M08/M12 A3056 RMK AO1 T10791125
KSBS 111635Z AUTO 00000KT 10SM CLR M08/M13 A3056 RMK AO1 T10831132
KSBS 111612Z AUTO 00000KT 10SM CLR M10/M14 A3056 RMK AO1 T11001137
KSBS 111554Z AUTO 00000KT 10SM CLR M10/M14 A3056 RMK AO1 T11051141
KSBS 111530Z AUTO 00000KT 10SM CLR M11/M14 A3056 RMK AO1 T11081143
KSBS 111512Z AUTO 00000KT 10SM CLR M12/M15 A3055 RMK AO1 T11191151
KSBS 111454Z AUTO 00000KT 10SM CLR M13/M15 A3054 RMK AO1 T11301155
KSBS 111430Z AUTO 00000KT 10SM CLR M12/M16 A3054 RMK AO1 T11251157
KSBS 111412Z AUTO 00000KT 10SM CLR M12/M15 A3054 RMK AO1 T11201154
KSBS 111354Z AUTO 00000KT 10SM CLR M13/M15 A3054 RMK AO1 T11261150
KSBS 111330Z AUTO 00000KT 10SM CLR M12/M15 A3054 RMK AO1 T11161148
KSBS 111312Z AUTO 00000KT 10SM CLR M13/M15 A3054 RMK AO1 T11301151
KSBS 111254Z AUTO 00000KT 10SM CLR M11/M14 A3055 RMK AO1 T11101145
KSBS 111230Z AUTO 00000KT 10SM CLR M11/M14 A3054 RMK AO1 T11091143
KSBS 111212Z AUTO 00000KT 10SM CLR M11/M14 A3055 RMK AO1 T11141145
KSBS 111153Z AUTO 00000KT 10SM CLR M11/M14 A3055 RMK AO1 T11071141
KSBS 111135Z AUTO 00000KT 10SM CLR M12/M15 A3055 RMK AO1 T11231146
KSBS 111112Z AUTO 00000KT 10SM CLR M12/M15 A3055 RMK AO1 T11161147
KSBS 111053Z AUTO 00000KT 10SM CLR M11/M14 A3056 RMK AO1 T11151141
KSBS 111035Z AUTO 00000KT 10SM CLR M12/M14 A3056 RMK AO1 T11161142
KSBS 111012Z AUTO 00000KT 10SM CLR M12/M15 A3056 RMK AO1 T11171150
KSBS 110954Z AUTO 00000KT 10SM CLR M10/M14 A3056 RMK AO1 T10991136
KSBS 110930Z AUTO 00000KT 10SM CLR M11/M14 A3056 RMK AO1 T11101140
KSBS 110912Z AUTO 00000KT 10SM CLR M12/M14 A3056 RMK AO1 T11181145
KSBS 110853Z AUTO 00000KT 10SM CLR M09/M13 A3056 RMK AO1 T10901133
KSBS 110830Z AUTO 00000KT 10SM CLR M10/M14 A3056 RMK AO1 T11021138
KSBS 110812Z AUTO 00000KT 10SM CLR M11/M14 A3055 RMK AO1 T11141139
KSBS 110755Z AUTO 10003KT 10SM CLR M09/M13 A3054 RMK AO1 T10921135
KSBS 110732Z AUTO 00000KT 10SM CLR M09/M13 A3056 RMK AO1 T10951130
KSBS 110714Z AUTO 12003KT 10SM CLR M09/M13 A3055 RMK AO1 T10931132
KSBS 110654Z AUTO 00000KT 10SM CLR M10/M14 A3055 RMK AO1 T11021138
KSBS 110630Z AUTO 00000KT 10SM CLR M11/M14 A3055 RMK AO1 T11071141
KSBS 110612Z AUTO 00000KT 10SM CLR M08/M13 A3054 RMK AO1 T10761135
KSBS 110553Z AUTO 31003KT 10SM CLR M07/M13 A3054 RMK AO1 T10671131
KSBS 110530Z AUTO 06003KT 10SM CLR M07/M13 A3054 RMK AO1 T10681126
KSBS 110512Z AUTO 00000KT 10SM CLR M07/M12 A3054 RMK AO1 T10751123
KSBS 110453Z AUTO 00000KT 10SM CLR M08/M13 A3054 RMK AO1 T10781126
KSBS 110435Z AUTO 00000KT 10SM CLR M07/M12 A3054 RMK AO1 T10751120
KSBS 110412Z AUTO 00000KT 10SM CLR M06/M12 A3054 RMK AO1 T10601118
KSBS 110353Z AUTO 00000KT 10SM CLR M06/M12 A3055 RMK AO1 T10561120
KSBS 110330Z AUTO 00000KT 10SM CLR M06/M12 A3055 RMK AO1 T10591116
KSBS 110312Z AUTO 00000KT 10SM CLR M04/M11 A3053 RMK AO1 T10451114
KSBS 110254Z AUTO 00000KT 10SM CLR M05/M11 A3053 RMK AO1 T10491109
KSBS 110230Z AUTO 00000KT 10SM CLR M03/M11 A3052 RMK AO1 T10351112
KSBS 110212Z AUTO 13003KT 10SM CLR M03/M11 A3053 RMK AO1 T10301110
KSBS 110154Z AUTO 00000KT 10SM CLR M04/M10 A3054 RMK AO1 T10371105
KSBS 110130Z AUTO 00000KT 10SM CLR M02/M11 A3052 RMK AO1 T10221106
KSBS 110112Z AUTO 00000KT 10SM CLR M02/M10 A3052 RMK AO1 T10221103
KSBS 110053Z AUTO 32003KT 10SM CLR M03/M10 A3052 RMK AO1 T10271105
KSBS 110035Z AUTO 00000KT 10SM CLR M03/M10 A3052 RMK AO1 T10341099
KSBS 110012Z AUTO 00000KT 10SM CLR M02/M10 A3052 RMK AO1 T10211105
KSBS 102352Z AUTO 13006KT 10SM CLR M01/M11 A3052 RMK AO1 T10091108
KSBS 102335Z AUTO 10004KT 10SM CLR 00/M10 A3052 RMK AO1 T00041105
KSBS 102311Z AUTO 00000KT 10SM CLR 02/M11 A3053 RMK AO1 T00151109
KSBS 102252Z AUTO 00000KT 10SM CLR 02/M10 A3053 RMK AO1 T00231100
KSBS 102235Z AUTO 00000KT 10SM CLR 02/M10 A3053 RMK AO1 T00201105
KSBS 102211Z AUTO 22003KT 10SM CLR 02/M10 A3053 RMK AO1 T00221097